Time;durP1;ratioP1;P1;durP2;ratioP2;P2;SDS_P1;SDS_P2;PMS_P1;PMS_P2;Temp;Humidity;BMP_temperature;BMP_pressure;BME280_temperature;BME280_humidity;BME280_pressure;Samples;Min_cycle;Max_cycle;Signal;HPM_P1;HPM_P2
2023/06/11 06:09:23;;;;;;;5.32;1.48;;;;;;;;;;6060979;23;20120;-85
2023/06/11 06:11:55;;;;;;;2.70;1.10;;;;;;;;;;6036182;23;20520;-85
2023/06/11 06:14:56;;;;;;;2.58;1.00;;;;;;;;;;6037028;23;20098;-85
2023/06/11 06:20:57;;;;;;;7.28;1.50;;;;;;;;;;6045816;23;20090;-85
2023/06/11 06:23:32;;;;;;;4.10;1.13;;;;;;;;;;6117444;23;20017;-86
2023/06/11 06:26:01;;;;;;;3.70;1.48;;;;;;;;;;6119531;23;20105;-86
2023/06/11 06:28:27;;;;;;;4.20;1.13;;;;;;;;;;6094445;23;20040;-85
2023/06/11 06:33:58;;;;;;;3.20;1.10;;;;;;;;;;6118266;23;20110;-84
2023/06/11 06:36:24;;;;;;;2.22;1.20;;;;;;;;;;6121566;23;20045;-84
2023/06/11 06:38:50;;;;;;;2.83;1.13;;;;;;;;;;6094305;23;20334;-84
2023/06/11 06:41:16;;;;;;;3.45;1.10;;;;;;;;;;6094500;23;20896;-83
2023/06/11 06:43:42;;;;;;;5.88;1.35;;;;;;;;;;6145317;23;20051;-84
2023/06/11 06:46:08;;;;;;;4.85;1.17;;;;;;;;;;6155837;23;20063;-86
2023/06/11 06:48:34;;;;;;;3.10;1.02;;;;;;;;;;6154759;23;20032;-84
2023/06/11 06:51:01;;;;;;;2.63;1.05;;;;;;;;;;6181703;23;20429;-85
2023/06/11 06:53:27;;;;;;;2.00;1.02;;;;;;;;;;6180586;23;20437;-85
2023/06/11 06:55:53;;;;;;;5.55;1.52;;;;;;;;;;6154874;23;20017;-85
2023/06/11 06:58:19;;;;;;;4.72;1.10;;;;;;;;;;6180470;23;20278;-83
2023/06/11 09:06:13;;;;;;;2.53;1.17;;;;;;;;;;6206293;23;20036;-86
2023/06/11 09:08:42;;;;;;;3.08;1.20;;;;;;;;;;6210862;23;20079;-87
2023/06/11 09:11:08;;;;;;;2.58;1.23;;;;;;;;;;6185864;23;20454;-87
2023/06/11 09:13:34;;;;;;;4.72;1.60;;;;;;;;;;6185488;23;20051;-86
2023/06/11 09:16:00;;;;;;;5.32;1.70;;;;;;;;;;6212186;23;20087;-82
2023/06/11 09:18:27;;;;;;;13.95;1.77;;;;;;;;;;6212308;23;20009;-83
2023/06/11 09:20:54;;;;;;;3.63;1.60;;;;;;;;;;6184773;23;20103;-83
2023/06/11 09:23:27;;;;;;;3.50;1.40;;;;;;;;;;6211702;23;20005;-83
2023/06/11 09:25:53;;;;;;;2.47;1.33;;;;;;;;;;6211793;23;20008;-83
2023/06/11 09:28:20;;;;;;;5.00;2.13;;;;;;;;;;6212189;23;20016;-82
2023/06/11 09:37:03;;;;;;;6.83;1.90;;;;;;;;;;6204211;23;20055;-84
2023/06/11 09:42:50;;;;;;;;;;;;;;;;;;;;;
2023/06/11 09:48:54;;;;;;;4.05;1.92;;;;;;;;;;6073069;23;20468;-83
2023/06/11 09:51:26;;;;;;;4.60;1.98;;;;;;;;;;6211028;23;20015;-83
2023/06/11 09:54:13;;;;;;;3.55;2.10;;;;;;;;;;6184547;23;20036;-83
2023/06/11 09:57:12;;;;;;;4.95;2.35;;;;;;;;;;6183639;23;20123;-83
2023/06/11 09:59:40;;;;;;;5.25;1.90;;;;;;;;;;6183799;23;20039;-86
2023/06/11 10:05:23;;;;;;;3.55;1.90;;;;;;;;;;6211383;23;20379;-87
2023/06/11 10:07:49;;;;;;;5.93;2.22;;;;;;;;;;6185724;23;20012;-88
2023/06/11 10:10:22;;;;;;;4.30;2.45;;;;;;;;;;6185632;23;20021;-87
2023/06/11 10:12:50;;;;;;;4.13;2.20;;;;;;;;;;6185417;23;20051;-87
2023/06/11 10:15:16;;;;;;;5.80;2.30;;;;;;;;;;6184886;23;20465;-87
2023/06/11 10:17:47;;;;;;;3.13;2.03;;;;;;;;;;6184014;23;20024;-87
2023/06/11 10:20:17;;;;;;;4.13;2.33;;;;;;;;;;6185269;23;20037;-87
2023/06/11 10:22:46;;;;;;;6.50;2.72;;;;;;;;;;6184707;23;20614;-88
2023/06/11 10:25:12;;;;;;;5.40;2.70;;;;;;;;;;6184723;23;20429;-88
2023/06/11 10:27:39;;;;;;;4.55;2.55;;;;;;;;;;6212158;23;20019;-86
2023/06/11 10:30:06;;;;;;;4.32;2.28;;;;;;;;;;6185905;23;20511;-87
2023/06/11 10:32:32;;;;;;;4.68;2.58;;;;;;;;;;6210453;23;20017;-86
2023/06/11 10:35:09;;;;;;;3.60;2.40;;;;;;;;;;6183888;23;20013;-88
2023/06/11 10:42:52;;;;;;;4.88;2.58;;;;;;;;;;6175999;23;20035;-87
2023/06/11 10:48:33;;;;;;;5.45;2.80;;;;;;;;;;6031895;23;20038;-84
2023/06/11 10:54:39;;;;;;;;;;;;;;;;;;;;;
2023/06/11 10:57:08;;;;;;;4.70;3.10;;;;;;;;;;5946977;24;20017;-87
2023/06/11 10:59:36;;;;;;;4.75;2.50;;;;;;;;;;6103780;23;20384;-88
2023/06/11 11:12:45;;;;;;;5.57;2.53;;;;;;;;;;6207325;23;20036;-86
2023/06/11 11:15:14;;;;;;;4.07;2.70;;;;;;;;;;6184184;23;20047;-85
2023/06/11 11:17:40;;;;;;;4.32;2.53;;;;;;;;;;6183930;23;20013;-85
2023/06/11 11:20:07;;;;;;;5.80;2.90;;;;;;;;;;6185092;23;20005;-87
2023/06/11 11:22:48;;;;;;;4.65;2.67;;;;;;;;;;6184412;23;20024;-88
2023/06/11 11:25:41;;;;;;;6.13;2.78;;;;;;;;;;6185324;23;20011;-88
2023/06/11 11:31:25;;;;;;;;;;;;;;;;;;6213011;23;20033;-88
2023/06/11 11:33:51;;;;;;;7.68;3.28;;;;;;;;;;6185075;23;19922;-88
2023/06/11 11:36:37;;;;;;;10.68;3.17;;;;;;;;;;6184253;23;20039;-88
2023/06/11 11:39:25;;;;;;;5.22;2.85;;;;;;;;;;6184565;23;20008;-89
2023/06/11 11:45:04;;;;;;;4.10;2.55;;;;;;;;;;6182186;23;20009;-88
2023/06/11 11:51:07;;;;;;;;;;;;;;;;;;;;;
2023/06/11 11:54:23;;;;;;;4.68;2.80;;;;;;;;;;6178387;23;20336;-88
2023/06/11 11:57:20;;;;;;;6.60;3.40;;;;;;;;;;6155352;23;20021;-88
2023/06/11 12:00:22;;;;;;;;;;;;;;;;;;;;;
2023/06/11 12:03:15;;;;;;;7.88;3.10;;;;;;;;;;6121169;23;20920;-89
2023/06/11 12:05:48;;;;;;;5.07;3.20;;;;;;;;;;6134899;23;20009;-88
2023/06/11 12:08:43;;;;;;;6.93;3.33;;;;;;;;;;6156549;23;20029;-88
2023/06/11 12:27:37;;;;;;;5.03;3.17;;;;;;;;;;6211672;23;20108;-88
2023/06/11 12:39:43;;;;;;;8.48;3.35;;;;;;;;;;6063067;23;20025;-89
2023/06/11 12:42:38;;;;;;;9.73;3.53;;;;;;;;;;6081014;23;20017;-88
2023/06/11 12:45:37;;;;;;;;;;;;;;;;;;;;;
2023/06/11 12:48:27;;;;;;;5.78;3.22;;;;;;;;;;6091738;23;20086;-88
2023/06/11 12:54:25;;;;;;;4.75;3.42;;;;;;;;;;6092257;23;20032;-88
2023/06/11 12:56:52;;;;;;;4.70;3.25;;;;;;;;;;6066552;23;20446;-87
2023/06/11 12:59:33;;;;;;;6.13;3.42;;;;;;;;;;6112941;23;20009;-88
2023/06/11 13:02:08;;;;;;;5.25;3.03;;;;;;;;;;6127220;23;20049;-88
2023/06/11 13:04:34;;;;;;;7.47;3.58;;;;;;;;;;6126125;23;20014;-84
2023/06/11 13:07:06;;;;;;;4.78;3.33;;;;;;;;;;6124574;23;20350;-89
2023/06/11 13:09:59;;;;;;;6.30;3.72;;;;;;;;;;6126618;23;20077;-89
2023/06/11 13:12:25;;;;;;;5.78;3.80;;;;;;;;;;6121373;23;20021;-88
2023/06/11 13:14:52;;;;;;;7.85;3.78;;;;;;;;;;6125482;23;20453;-87
2023/06/11 13:17:23;;;;;;;4.18;3.28;;;;;;;;;;6125441;23;20052;-89
2023/06/11 13:19:57;;;;;;;5.22;3.97;;;;;;;;;;6125006;23;20018;-88
2023/06/11 13:22:23;;;;;;;4.65;3.55;;;;;;;;;;6125157;23;20461;-87
2023/06/11 13:28:17;;;;;;;;;;;;;;;;;;;;;
2023/06/11 13:30:46;;;;;;;6.95;4.20;;;;;;;;;;6192403;23;20140;-90
2023/06/11 13:33:12;;;;;;;6.45;3.67;;;;;;;;;;6155636;23;20005;-89
2023/06/11 13:35:38;;;;;;;5.43;3.90;;;;;;;;;;6155841;23;20017;-89
2023/06/11 13:38:05;;;;;;;4.55;3.50;;;;;;;;;;6155238;23;20054;-88
2023/06/11 13:40:31;;;;;;;5.05;3.70;;;;;;;;;;6155924;23;20013;-86
2023/06/11 13:42:57;;;;;;;7.03;3.40;;;;;;;;;;6157350;23;20031;-87
2023/06/11 13:45:23;;;;;;;6.07;3.60;;;;;;;;;;6157230;23;20009;-89
2023/06/11 13:47:49;;;;;;;4.75;3.17;;;;;;;;;;6155958;23;20019;-88
2023/06/11 13:50:15;;;;;;;4.82;3.58;;;;;;;;;;6182489;23;20100;-89
2023/06/11 13:52:41;;;;;;;7.75;3.67;;;;;;;;;;6156108;23;20051;-88
2023/06/11 13:55:07;;;;;;;5.30;3.60;;;;;;;;;;6156230;23;20017;-86
2023/06/11 13:57:33;;;;;;;4.57;3.25;;;;;;;;;;6181884;23;20055;-88
2023/06/11 13:59:59;;;;;;;4.72;3.60;;;;;;;;;;6182260;23;20013;-87
2023/06/11 14:02:25;;;;;;;4.68;3.60;;;;;;;;;;6155912;23;20044;-89
2023/06/11 14:04:53;;;;;;;5.65;3.20;;;;;;;;;;6155535;23;20088;-87
2023/06/11 14:07:19;;;;;;;5.53;3.25;;;;;;;;;;6155415;23;20009;-87
2023/06/11 14:09:46;;;;;;;8.65;3.50;;;;;;;;;;6154254;23;20044;-87
2023/06/11 14:12:12;;;;;;;5.65;3.83;;;;;;;;;;6181767;23;20044;-87
2023/06/11 14:14:38;;;;;;;5.35;3.67;;;;;;;;;;6156544;23;20040;-87
2023/06/11 14:17:07;;;;;;;5.07;3.50;;;;;;;;;;6182670;23;20413;-89
2023/06/11 14:19:43;;;;;;;;;;;;;;;;;;;;;
2023/06/11 14:22:10;;;;;;;6.40;3.83;;;;;;;;;;6182179;23;20015;-86
2023/06/11 14:24:36;;;;;;;9.13;3.70;;;;;;;;;;6166085;23;20022;-85
2023/06/11 14:27:02;;;;;;;6.05;3.90;;;;;;;;;;6187125;23;19998;-86
2023/06/11 14:29:50;;;;;;;4.70;3.75;;;;;;;;;;6155710;23;20079;-88
2023/06/11 14:32:20;;;;;;;5.60;3.90;;;;;;;;;;6155277;23;20020;-87
2023/06/11 14:34:46;;;;;;;5.75;4.05;;;;;;;;;;6154389;23;20048;-87
2023/06/11 14:37:12;;;;;;;6.65;4.47;;;;;;;;;;6181320;23;20413;-87
2023/06/11 14:39:38;;;;;;;5.43;3.88;;;;;;;;;;6154447;23;20020;-87
2023/06/11 14:42:04;;;;;;;6.78;4.28;;;;;;;;;;6155421;23;20644;-87
2023/06/11 14:44:34;;;;;;;5.03;4.07;;;;;;;;;;6153971;23;20444;-87
2023/06/11 14:47:00;;;;;;;13.85;4.38;;;;;;;;;;6155137;23;20008;-87
2023/06/11 14:49:26;;;;;;;7.35;4.38;;;;;;;;;;6154173;23;20108;-87
2023/06/11 14:51:52;;;;;;;7.30;4.32;;;;;;;;;;6155286;23;20013;-87
2023/06/11 14:54:18;;;;;;;5.15;4.03;;;;;;;;;;6154141;23;20082;-88
2023/06/11 14:56:44;;;;;;;6.88;3.80;;;;;;;;;;6154918;23;20063;-87
2023/06/11 14:59:11;;;;;;;5.90;4.05;;;;;;;;;;6153889;23;20024;-87
2023/06/11 15:01:40;;;;;;;8.50;4.60;;;;;;;;;;6154669;23;20040;-87
2023/06/11 15:04:06;;;;;;;5.90;4.13;;;;;;;;;;6154580;23;20009;-87
2023/06/11 15:06:33;;;;;;;6.07;4.30;;;;;;;;;;6153910;23;20439;-88
2023/06/11 15:08:59;;;;;;;4.47;3.67;;;;;;;;;;6154077;23;20023;-88
2023/06/11 15:12:02;;;;;;;9.75;4.90;;;;;;;;;;6181082;23;20440;-86
2023/06/11 15:14:41;;;;;;;11.90;4.22;;;;;;;;;;6139765;23;20108;-88
2023/06/11 15:17:48;;;;;;;5.30;3.95;;;;;;;;;;6154903;23;20021;-87
2023/06/11 15:20:17;;;;;;;7.90;3.80;;;;;;;;;;6147307;23;20009;-87
2023/06/11 15:25:45;;;;;;;9.13;4.15;;;;;;;;;;6172135;23;19958;-89
2023/06/11 15:28:24;;;;;;;5.57;3.90;;;;;;;;;;6143897;23;20019;-88
2023/06/11 15:36:42;;;;;;;9.63;4.72;;;;;;;;;;6003316;23;20064;-86
2023/06/11 15:39:11;;;;;;;6.00;4.38;;;;;;;;;;6003180;23;20106;-87
2023/06/11 15:42:07;;;;;;;;;;;;;;;;;;;;;
2023/06/11 15:44:37;;;;;;;5.93;4.03;;;;;;;;;;6121907;23;20089;-88
2023/06/11 15:47:04;;;;;;;7.75;4.60;;;;;;;;;;6095822;23;20014;-89
2023/06/11 15:49:53;;;;;;;5.85;4.53;;;;;;;;;;6095639;23;20085;-88
2023/06/11 15:52:22;;;;;;;6.45;4.57;;;;;;;;;;6122092;23;20021;-86
2023/06/11 15:54:48;;;;;;;8.13;4.40;;;;;;;;;;6096389;23;20014;-87
2023/06/11 15:57:14;;;;;;;8.02;4.28;;;;;;;;;;6097993;23;20073;-87
2023/06/11 15:59:40;;;;;;;6.22;4.05;;;;;;;;;;6099017;23;20010;-87
2023/06/11 16:02:06;;;;;;;6.65;4.28;;;;;;;;;;6126825;23;20018;-86
2023/06/11 16:04:35;;;;;;;5.22;4.18;;;;;;;;;;6099646;23;20010;-88
2023/06/11 16:07:08;;;;;;;7.55;4.45;;;;;;;;;;6063225;23;20066;-88
2023/06/11 16:09:34;;;;;;;6.13;4.28;;;;;;;;;;6062463;23;20099;-87
2023/06/11 16:12:37;;;;;;;7.38;4.47;;;;;;;;;;6062390;23;20023;-90
2023/06/11 16:24:32;;;;;;;;;;;;;;;;;;;;;
2023/06/11 16:57:41;;;;;;;7.53;5.40;;;;;;;;;;6122363;23;20037;-86
2023/06/11 17:00:10;;;;;;;5.68;4.25;;;;;;;;;;6122022;23;20014;-84
2023/06/11 17:02:42;;;;;;;9.43;4.93;;;;;;;;;;6122537;23;20002;-85
2023/06/11 17:23:43;;;;;;;8.95;5.25;;;;;;;;;;6123275;23;20048;-85
2023/06/11 17:26:09;;;;;;;6.15;4.93;;;;;;;;;;6096962;23;20042;-87
2023/06/11 17:28:38;;;;;;;6.13;4.65;;;;;;;;;;6122795;23;20049;-88
2023/06/11 17:31:08;;;;;;;6.70;4.70;;;;;;;;;;6096856;23;20018;-88
2023/06/11 17:33:34;;;;;;;7.53;4.72;;;;;;;;;;6097129;23;20699;-86
2023/06/11 17:36:16;;;;;;;;;;;;;;;;;;;;;
2023/06/11 17:41:23;;;;;;;9.20;5.80;;;;;;;;;;6235352;22;20060;-84
2023/06/11 17:46:19;;;;;;;12.20;8.38;;;;;;;;;;6205045;23;20036;-84
2023/06/11 17:48:45;;;;;;;12.45;8.75;;;;;;;;;;6214930;23;20066;-82
2023/06/11 17:51:11;;;;;;;9.60;7.20;;;;;;;;;;6215707;23;20874;-83
2023/06/11 17:53:37;;;;;;;6.72;4.78;;;;;;;;;;6211302;23;20009;-82
2023/06/11 17:56:03;;;;;;;5.53;4.45;;;;;;;;;;6211723;23;20008;-84
2023/06/11 17:58:29;;;;;;;10.60;6.15;;;;;;;;;;6184374;23;20000;-84
2023/06/11 18:00:55;;;;;;;12.90;7.60;;;;;;;;;;6184970;23;20012;-85
2023/06/11 18:03:21;;;;;;;13.15;8.70;;;;;;;;;;6184308;23;20004;-83
2023/06/11 18:05:47;;;;;;;20.60;14.50;;;;;;;;;;6185083;23;20016;-85
2023/06/11 18:08:13;;;;;;;16.38;10.98;;;;;;;;;;6184516;23;20013;-83
2023/06/11 18:10:39;;;;;;;11.05;6.07;;;;;;;;;;6185025;23;20020;-85
2023/06/11 18:13:05;;;;;;;6.82;5.00;;;;;;;;;;6184499;23;20360;-85
2023/06/11 18:15:31;;;;;;;9.07;5.88;;;;;;;;;;6184384;23;20040;-85
2023/06/11 18:17:57;;;;;;;10.65;7.65;;;;;;;;;;6211031;23;20036;-85
2023/06/11 18:20:23;;;;;;;8.07;5.00;;;;;;;;;;6184295;23;20013;-85
2023/06/11 18:22:49;;;;;;;7.22;5.53;;;;;;;;;;6211068;23;20578;-84
2023/06/11 18:25:15;;;;;;;9.73;5.47;;;;;;;;;;6182855;23;20597;-84
2023/06/11 18:27:41;;;;;;;8.20;5.25;;;;;;;;;;6184427;23;20005;-84
2023/06/11 18:30:07;;;;;;;8.38;4.90;;;;;;;;;;6209929;23;20052;-85
2023/06/11 18:32:35;;;;;;;9.15;4.90;;;;;;;;;;6211476;23;20198;-85
2023/06/11 18:35:01;;;;;;;9.57;5.32;;;;;;;;;;6210890;23;20532;-84
2023/06/11 18:37:27;;;;;;;8.65;4.45;;;;;;;;;;6184112;23;20016;-84
2023/06/11 18:39:53;;;;;;;8.02;4.65;;;;;;;;;;6211520;23;20019;-85
2023/06/11 18:42:20;;;;;;;7.00;5.13;;;;;;;;;;6211141;23;20008;-84
2023/06/11 18:44:46;;;;;;;7.85;4.93;;;;;;;;;;6209955;23;20024;-84
2023/06/11 18:47:12;;;;;;;7.28;4.47;;;;;;;;;;6187508;23;20028;-82
2023/06/11 18:49:38;;;;;;;6.15;4.88;;;;;;;;;;6216251;23;20411;-81
2023/06/11 18:52:05;;;;;;;6.65;4.63;;;;;;;;;;6214860;23;20040;-82
2023/06/11 18:54:32;;;;;;;7.78;4.90;;;;;;;;;;6217411;23;20170;-82
2023/06/11 18:56:58;;;;;;;7.68;4.57;;;;;;;;;;6214605;23;20162;-81
2023/06/11 18:59:24;;;;;;;7.63;4.68;;;;;;;;;;6187071;23;20017;-80
2023/06/11 19:01:50;;;;;;;6.57;5.07;;;;;;;;;;6215236;23;20059;-81
2023/06/11 19:04:16;;;;;;;6.88;4.65;;;;;;;;;;6214346;23;20039;-86
2023/06/11 19:06:42;;;;;;;9.38;4.63;;;;;;;;;;6214642;23;20005;-82
2023/06/11 19:09:10;;;;;;;8.05;5.45;;;;;;;;;;6216032;23;20016;-82
2023/06/11 19:11:37;;;;;;;6.88;5.43;;;;;;;;;;6215753;23;20544;-82
2023/06/11 19:14:03;;;;;;;8.80;5.15;;;;;;;;;;6189481;23;20039;-83
2023/06/11 19:16:29;;;;;;;10.85;6.22;;;;;;;;;;6215277;23;20013;-83
2023/06/11 19:18:55;;;;;;;9.32;5.50;;;;;;;;;;6187995;23;20023;-83
2023/06/11 19:21:23;;;;;;;7.45;5.03;;;;;;;;;;6216177;23;20032;-83
2023/06/11 19:23:49;;;;;;;6.65;5.10;;;;;;;;;;6214450;23;20103;-83
2023/06/11 19:26:20;;;;;;;8.55;5.00;;;;;;;;;;6215949;23;20001;-83
2023/06/11 19:28:46;;;;;;;9.10;5.30;;;;;;;;;;6216568;23;20068;-82
2023/06/11 19:31:12;;;;;;;9.45;5.43;;;;;;;;;;6216313;23;20036;-83
2023/06/11 19:33:38;;;;;;;9.43;5.68;;;;;;;;;;6213652;23;20008;-85
2023/06/11 19:36:04;;;;;;;6.75;5.45;;;;;;;;;;6184135;23;20048;-85
2023/06/11 19:38:30;;;;;;;12.07;5.80;;;;;;;;;;6184157;23;20031;-85
2023/06/11 19:40:56;;;;;;;8.68;5.82;;;;;;;;;;6183613;23;20107;-85
2023/06/11 19:43:22;;;;;;;9.88;7.03;;;;;;;;;;6184363;23;20047;-85
2023/06/11 19:45:48;;;;;;;18.48;9.75;;;;;;;;;;6182614;23;20028;-85
2023/06/11 19:48:19;;;;;;;30.92;16.90;;;;;;;;;;6184628;23;20012;-85
2023/06/11 19:50:45;;;;;;;18.90;13.05;;;;;;;;;;6183732;23;20027;-84
2023/06/11 19:53:11;;;;;;;16.88;10.43;;;;;;;;;;6184213;23;20015;-86
2023/06/11 19:55:37;;;;;;;10.73;7.22;;;;;;;;;;6182882;23;20027;-83
2023/06/11 19:58:03;;;;;;;9.68;6.15;;;;;;;;;;6183314;23;20043;-82
2023/06/11 20:00:29;;;;;;;26.10;17.75;;;;;;;;;;6183257;23;20020;-83
2023/06/11 20:02:55;;;;;;;14.85;10.57;;;;;;;;;;6183942;23;20009;-83
2023/06/11 20:05:21;;;;;;;10.90;8.07;;;;;;;;;;6182749;23;20436;-82
2023/06/11 20:07:47;;;;;;;10.18;6.72;;;;;;;;;;6183297;23;20034;-82
2023/06/11 20:10:13;;;;;;;13.30;7.20;;;;;;;;;;6183474;23;20436;-83
2023/06/11 20:12:39;;;;;;;11.32;6.20;;;;;;;;;;6184550;23;20039;-82
2023/06/11 20:15:06;;;;;;;9.05;6.00;;;;;;;;;;6184473;23;20440;-83
2023/06/11 20:17:32;;;;;;;9.50;5.55;;;;;;;;;;6182693;23;20083;-83
2023/06/11 20:19:58;;;;;;;7.82;5.63;;;;;;;;;;6184504;23;20013;-83
2023/06/11 20:22:24;;;;;;;10.23;6.00;;;;;;;;;;6183210;23;20017;-83
2023/06/11 20:24:50;;;;;;;6.57;5.50;;;;;;;;;;6183293;23;20017;-83
2023/06/11 20:27:16;;;;;;;9.75;5.32;;;;;;;;;;6209549;23;20016;-83
2023/06/11 20:29:42;;;;;;;8.85;6.00;;;;;;;;;;6184191;23;20025;-83
2023/06/11 20:32:09;;;;;;;6.03;4.97;;;;;;;;;;6183587;23;20013;-83
2023/06/11 20:34:37;;;;;;;9.90;5.15;;;;;;;;;;6183712;23;20036;-83
2023/06/11 20:37:03;;;;;;;9.00;5.10;;;;;;;;;;6183473;23;20071;-83
2023/06/11 20:39:29;;;;;;;9.55;5.57;;;;;;;;;;6185635;23;20016;-83
2023/06/11 20:41:55;;;;;;;7.78;5.00;;;;;;;;;;6184887;23;20009;-83
2023/06/11 20:44:21;;;;;;;8.25;4.88;;;;;;;;;;6185917;23;20016;-83
2023/06/11 20:46:47;;;;;;;9.27;5.45;;;;;;;;;;6184698;23;20008;-83
2023/06/11 20:49:13;;;;;;;6.32;4.80;;;;;;;;;;6185487;23;20046;-83
2023/06/11 20:51:39;;;;;;;8.27;4.90;;;;;;;;;;6185742;23;20013;-83
2023/06/11 20:54:05;;;;;;;6.80;5.10;;;;;;;;;;6185894;23;20020;-83
2023/06/11 20:56:31;;;;;;;7.43;4.70;;;;;;;;;;6185207;23;20016;-83
2023/06/11 21:05:27;;;;;;;7.65;4.78;;;;;;;;;;6144137;23;20010;-83
2023/06/11 21:08:12;;;;;;;6.95;4.47;;;;;;;;;;6125172;23;20340;-83
2023/06/11 21:10:40;;;;;;;6.75;4.30;;;;;;;;;;6126581;23;20064;-83
2023/06/11 21:13:19;;;;;;;8.25;4.55;;;;;;;;;;6125722;23;20152;-83
2023/06/11 21:15:56;;;;;;;9.32;4.35;;;;;;;;;;6126106;23;20148;-83
2023/06/11 21:19:19;;;;;;;5.45;4.20;;;;;;;;;;6126110;23;20171;-83
2023/06/11 21:21:44;;;;;;;6.35;4.50;;;;;;;;;;6148114;23;20006;-82
2023/06/11 21:24:27;;;;;;;7.95;4.43;;;;;;;;;;6124979;23;20020;-83
2023/06/11 21:27:11;;;;;;;9.23;4.45;;;;;;;;;;6125065;23;20617;-83
2023/06/11 21:42:03;;;;;;;8.48;4.57;;;;;;;;;;6089691;23;20103;-83
2023/06/11 21:45:08;;;;;;;;;;;;;;;;;;;;;
2023/06/11 22:05:30;;;;;;;7.90;4.03;;;;;;;;;;6175751;23;20397;-82
2023/06/11 22:07:59;;;;;;;4.57;2.70;;;;;;;;;;6119402;23;20645;-82
2023/06/11 22:10:28;;;;;;;4.38;2.28;;;;;;;;;;6148439;23;20089;-82
2023/06/11 22:13:27;;;;;;;;;;;;;;;;;;;;;
2023/06/11 22:16:04;;;;;;;3.88;2.42;;;;;;;;;;6133847;23;20175;-82
2023/06/11 22:18:52;;;;;;;4.80;2.10;;;;;;;;;;6154754;23;20068;-82
2023/06/11 22:21:28;;;;;;;;;;;;;;;;;;;;;
2023/06/11 22:24:10;;;;;;;7.38;1.73;;;;;;;;;;6181434;23;20084;-82
2023/06/11 22:51:26;;;;;;;;;;;;;;;;;;;;;
2023/06/11 23:00:34;;;;;;;5.13;2.45;;;;;;;;;;6001995;23;20025;-81
2023/06/11 23:03:27;;;;;;;6.50;2.50;;;;;;;;;;6031499;23;20023;-81
2023/06/11 23:05:57;;;;;;;9.50;4.07;;;;;;;;;;6032202;23;20012;-81
2023/06/11 23:08:32;;;;;;;8.80;4.25;;;;;;;;;;6031169;23;20019;-81
2023/06/11 23:13:53;;;;;;;11.45;4.90;;;;;;;;;;6180516;23;20072;-81
2023/06/11 23:16:42;;;;;;;9.90;5.22;;;;;;;;;;6155206;23;20447;-81
2023/06/11 23:28:18;;;;;;;9.65;4.57;;;;;;;;;;6088163;23;20057;-81
2023/06/11 23:45:19;;;;;;;7.63;4.93;;;;;;;;;;6195942;23;19954;-81
2023/06/11 23:53:57;;;;;;;8.68;4.68;;;;;;;;;;6059974;23;20062;-81
2023/06/11 23:56:34;;;;;;;8.23;4.72;;;;;;;;;;6060444;23;20217;-81
2023/06/11 23:59:31;;;;;;;8.27;3.90;;;;;;;;;;6001915;23;20016;-81
